createdAt,value
2018-11-23T00:00:32.992Z,42.73
2018-11-23T00:01:05.911Z,44.98
2018-11-23T00:01:38.492Z,42.88
2018-11-23T00:02:11.100Z,43.83
2018-11-23T00:02:44.680Z,44.93
2018-11-23T00:03:17.283Z,43.13
2018-11-23T00:03:49.936Z,43.73
2018-11-23T00:04:22.568Z,43.20
2018-11-23T00:04:55.298Z,43.40
2018-11-23T00:05:27.964Z,43.08
2018-11-23T00:06:00.597Z,43.33
2018-11-23T00:06:33.198Z,43.87
2018-11-23T00:07:05.853Z,41.98
2018-11-23T00:07:38.883Z,42.80
2018-11-23T00:08:11.473Z,43.20
2018-11-23T00:08:44.311Z,42.62
2018-11-23T00:09:16.894Z,42.35
2018-11-23T00:09:49.473Z,43.98
2018-11-23T00:10:23.339Z,44.08
2018-11-23T00:10:55.914Z,42.60
2018-11-23T00:11:28.519Z,43.95
2018-11-23T00:12:01.117Z,42.95
2018-11-23T00:12:33.712Z,42.10
2018-11-23T00:13:06.307Z,43.50
2018-11-23T00:13:38.964Z,42.25
2018-11-23T00:14:11.560Z,43.87
2018-11-23T00:14:44.174Z,43.80
2018-11-23T00:15:19.070Z,44.10
2018-11-23T00:15:51.655Z,42.58
2018-11-23T00:16:24.215Z,44.30
2018-11-23T00:16:56.803Z,41.80
2018-11-23T00:17:29.406Z,43.58
2018-11-23T00:18:02.001Z,42.90
2018-11-23T00:18:34.607Z,42.05
2018-11-23T00:19:07.244Z,44.23
2018-11-23T00:19:39.839Z,43.80
2018-11-23T00:20:14.948Z,42.17
2018-11-23T00:20:47.536Z,43.38
2018-11-23T00:21:20.140Z,44.77
2018-11-23T00:21:52.716Z,41.92
2018-11-23T00:22:25.342Z,41.80
2018-11-23T00:22:57.958Z,43.13
2018-11-23T00:23:30.542Z,46.18
2018-11-23T00:24:03.159Z,42.67
2018-11-23T00:24:35.750Z,41.65
2018-11-23T00:25:10.423Z,42.05
2018-11-23T00:25:43.020Z,41.53
2018-11-23T00:26:15.649Z,42.23
2018-11-23T00:26:48.253Z,42.67
2018-11-23T00:27:20.869Z,42.62
2018-11-23T00:27:53.992Z,41.90
2018-11-23T00:28:26.600Z,42.25
2018-11-23T00:28:59.189Z,43.68
2018-11-23T00:29:31.772Z,45.95
2018-11-23T00:30:05.859Z,43.95
2018-11-23T00:30:38.442Z,44.00
2018-11-23T00:31:11.021Z,42.50
2018-11-23T00:31:43.613Z,41.58
2018-11-23T00:32:16.191Z,40.80
2018-11-23T00:32:49.209Z,42.98
2018-11-23T00:33:21.852Z,43.52
2018-11-23T00:33:54.748Z,43.23
2018-11-23T00:34:27.404Z,45.95
2018-11-23T00:35:00.009Z,45.85
2018-11-23T00:35:32.588Z,42.88
2018-11-23T00:36:05.736Z,46.28
2018-11-23T00:36:38.313Z,41.35
2018-11-23T00:37:10.933Z,41.65
2018-11-23T00:37:43.983Z,42.55
2018-11-23T00:38:16.577Z,43.63
2018-11-23T00:38:49.194Z,43.48
2018-11-23T00:39:22.098Z,41.50
2018-11-23T00:39:54.699Z,43.70
2018-11-23T00:40:30.246Z,41.90
2018-11-23T00:41:02.851Z,41.00
2018-11-23T00:41:35.466Z,42.75
2018-11-23T00:42:08.069Z,43.50
2018-11-23T00:42:41.039Z,42.27
2018-11-23T00:43:13.637Z,43.35
2018-11-23T00:43:46.233Z,42.15
2018-11-23T00:44:18.852Z,40.78
2018-11-23T00:45:54.516Z,41.63
2018-11-23T00:46:27.100Z,39.50
2018-11-23T00:46:59.675Z,39.00
2018-11-23T00:47:32.268Z,40.52
2018-11-23T00:48:05.052Z,43.50
2018-11-23T00:48:37.640Z,43.00
2018-11-23T00:49:10.224Z,39.88
2018-11-23T00:49:42.844Z,40.50
2018-11-23T00:50:16.623Z,44.45
2018-11-23T00:50:49.229Z,41.73
2018-11-23T00:51:21.822Z,44.42
2018-11-23T00:51:54.405Z,44.50
2018-11-23T00:52:27.084Z,43.87
2018-11-23T00:53:00.171Z,41.15
2018-11-23T00:53:32.749Z,41.95
2018-11-23T00:54:05.375Z,41.90
2018-11-23T00:54:38.001Z,42.95
2018-11-23T00:55:12.235Z,42.05
2018-11-23T00:55:44.803Z,41.83
2018-11-23T00:56:17.379Z,40.12
2018-11-23T00:56:49.964Z,42.65
2018-11-23T00:57:22.558Z,40.92
2018-11-23T00:57:55.197Z,41.02
2018-11-23T00:58:27.796Z,42.95
2018-11-23T00:59:00.791Z,45.58
2018-11-23T00:59:33.390Z,40.70
2018-11-23T01:00:09.985Z,42.85
2018-11-23T01:00:42.595Z,41.53
2018-11-23T01:01:15.224Z,44.03
2018-11-23T01:01:53.543Z,43.65
2018-11-23T01:02:26.129Z,42.10
2018-11-23T01:02:59.502Z,40.80
2018-11-23T01:03:32.083Z,41.95
2018-11-23T01:04:04.782Z,42.67
2018-11-23T01:04:37.375Z,41.28
2018-11-23T01:05:11.201Z,45.75
2018-11-23T01:05:43.842Z,40.15
2018-11-23T01:06:16.436Z,40.92
2018-11-23T01:06:49.024Z,41.33
2018-11-23T01:07:21.663Z,42.70
2018-11-23T01:07:54.426Z,44.40
2018-11-23T01:08:27.012Z,43.75
2018-11-23T01:08:59.618Z,41.02
2018-11-23T01:09:32.301Z,43.15
2018-11-23T01:10:07.396Z,41.13
2018-11-23T01:10:39.996Z,41.63
2018-11-23T01:11:12.657Z,42.15
2018-11-23T01:11:45.240Z,41.80
2018-11-23T01:12:17.837Z,42.17
2018-11-23T01:12:51.493Z,42.67
2018-11-23T01:13:24.081Z,42.23
2018-11-23T01:13:56.709Z,41.28
2018-11-23T01:14:29.477Z,41.55
2018-11-23T01:15:02.104Z,42.88
2018-11-23T01:15:34.701Z,44.90
2018-11-23T01:16:07.290Z,43.28
2018-11-23T01:16:39.902Z,42.78
2018-11-23T01:17:12.484Z,46.53
2018-11-23T01:17:45.060Z,43.48
2018-11-23T01:18:17.650Z,45.40
2018-11-23T01:18:50.251Z,43.92
2018-11-23T01:19:22.847Z,44.20
2018-11-23T01:19:55.489Z,43.70
2018-11-23T01:20:28.336Z,42.65
2018-11-23T01:21:00.916Z,43.17
2018-11-23T01:21:33.555Z,42.10
2018-11-23T01:22:06.201Z,46.10
2018-11-23T01:22:39.350Z,44.70
2018-11-23T01:23:11.927Z,42.53
2018-11-23T01:23:44.517Z,42.80
2018-11-23T01:24:17.093Z,43.80
2018-11-23T01:24:49.677Z,43.92
2018-11-23T01:25:23.192Z,41.77
2018-11-23T01:25:55.807Z,44.70
2018-11-23T01:26:28.402Z,41.98
2018-11-23T01:27:00.980Z,41.50
2018-11-23T01:27:33.592Z,43.05
2018-11-23T01:28:06.187Z,43.90
2018-11-23T01:28:38.758Z,43.42
2018-11-23T01:29:11.349Z,42.65
2018-11-23T01:29:43.923Z,43.40
2018-11-23T01:30:19.682Z,44.23
2018-11-23T01:30:52.279Z,41.20
2018-11-23T01:31:24.870Z,42.78
2018-11-23T01:31:57.465Z,41.70
2018-11-23T01:32:30.040Z,43.90
2018-11-23T01:33:02.643Z,42.98
2018-11-23T01:33:35.217Z,43.20
2018-11-23T01:34:07.796Z,41.35
2018-11-23T01:34:40.382Z,44.00
2018-11-23T01:35:13.223Z,42.05
2018-11-23T01:35:45.819Z,44.70
2018-11-23T01:36:18.419Z,43.15
2018-11-23T01:36:51.012Z,42.73
2018-11-23T01:37:23.692Z,44.35
2018-11-23T01:37:56.274Z,45.08
2018-11-23T01:38:28.897Z,44.93
2018-11-23T01:39:01.507Z,42.80
2018-11-23T01:39:34.096Z,42.45
2018-11-23T01:40:08.457Z,41.33
2018-11-23T01:40:41.053Z,42.30
2018-11-23T01:41:13.657Z,40.50
2018-11-23T01:41:46.255Z,40.88
2018-11-23T01:42:18.855Z,44.15
2018-11-23T01:42:51.879Z,44.35
2018-11-23T01:43:24.454Z,43.90
2018-11-23T01:43:57.059Z,44.35
2018-11-23T01:44:33.719Z,42.35
2018-11-23T01:45:07.483Z,43.00
2018-11-23T01:45:40.082Z,42.43
2018-11-23T01:46:12.679Z,42.85
2018-11-23T01:46:45.304Z,44.90
2018-11-23T01:47:19.751Z,44.27
2018-11-23T01:47:52.376Z,43.25
2018-11-23T01:48:24.951Z,42.53
2018-11-23T01:48:57.574Z,43.70
2018-11-23T01:49:30.159Z,43.15
2018-11-23T01:50:02.988Z,42.85
2018-11-23T01:50:35.574Z,44.60
2018-11-23T01:51:08.155Z,43.17
2018-11-23T01:51:40.746Z,43.40
2018-11-23T01:52:13.375Z,46.50
2018-11-23T01:52:47.119Z,43.15
2018-11-23T01:53:19.703Z,41.98
2018-11-23T01:53:52.285Z,42.27
2018-11-23T01:54:24.903Z,43.87
2018-11-23T01:54:57.502Z,41.65
2018-11-23T01:55:30.105Z,42.83
2018-11-23T01:56:02.711Z,44.18
2018-11-23T01:56:35.318Z,43.68
2018-11-23T01:57:07.961Z,42.65
2018-11-23T01:57:41.124Z,42.27
2018-11-23T01:58:13.731Z,41.40
2018-11-23T01:58:46.327Z,43.05
2018-11-23T01:59:18.919Z,44.05
2018-11-23T01:59:51.522Z,43.87
2018-11-23T02:00:25.469Z,41.92
2018-11-23T02:00:58.036Z,43.87
2018-11-23T02:01:30.623Z,41.88
2018-11-23T02:02:03.246Z,41.10
2018-11-23T02:02:35.862Z,43.92
2018-11-23T02:03:08.445Z,42.03
2018-11-23T02:03:41.029Z,42.08
2018-11-23T02:04:13.616Z,44.70
2018-11-23T02:04:46.198Z,42.08
2018-11-23T02:05:18.875Z,45.20
2018-11-23T02:05:51.498Z,43.83
2018-11-23T02:06:24.087Z,41.08
2018-11-23T02:06:56.700Z,44.25
2018-11-23T02:07:29.312Z,44.67
2018-11-23T02:08:01.901Z,42.00
2018-11-23T02:08:34.537Z,43.17
2018-11-23T02:09:07.707Z,41.65
2018-11-23T02:09:40.324Z,43.15
2018-11-23T02:10:14.382Z,42.93
2018-11-23T02:10:47.029Z,41.45
2018-11-23T02:11:19.650Z,42.55
2018-11-23T02:11:52.304Z,41.77
2018-11-23T02:12:24.916Z,42.48
2018-11-23T02:12:57.528Z,43.70
2018-11-23T02:13:30.141Z,40.80
2018-11-23T02:14:02.786Z,40.67
2018-11-23T02:14:35.401Z,43.55
2018-11-23T02:15:11.317Z,45.40
2018-11-23T02:15:43.926Z,41.68
2018-11-23T02:16:16.576Z,41.15
2018-11-23T02:16:49.301Z,43.58
2018-11-23T02:17:23.321Z,42.60
2018-11-23T02:17:55.918Z,42.38
2018-11-23T02:18:28.519Z,42.78
2018-11-23T02:19:01.129Z,43.23
2018-11-23T02:19:33.753Z,43.20
2018-11-23T02:20:08.414Z,41.58
2018-11-23T02:20:41.028Z,42.23
2018-11-23T02:21:13.680Z,43.05
2018-11-23T02:21:46.312Z,40.95
2018-11-23T02:22:18.937Z,43.58
2018-11-23T02:22:54.240Z,44.30
2018-11-23T02:23:26.847Z,42.90
2018-11-23T02:23:59.461Z,41.63
2018-11-23T02:24:32.081Z,45.50
2018-11-23T02:25:04.849Z,42.90
2018-11-23T02:25:37.473Z,41.02
2018-11-23T02:26:10.085Z,43.08
2018-11-23T02:26:42.688Z,43.35
2018-11-23T02:27:15.319Z,42.50
2018-11-23T02:27:47.941Z,43.68
2018-11-23T02:28:20.555Z,45.15
2018-11-23T02:28:53.138Z,41.18
2018-11-23T02:29:25.756Z,43.87
2018-11-23T02:29:58.343Z,41.30
2018-11-23T02:30:30.979Z,45.95
2018-11-23T02:31:08.780Z,40.10
2018-11-23T02:31:41.396Z,42.88
2018-11-23T02:32:14.022Z,41.42
2018-11-23T02:32:46.651Z,42.65
2018-11-23T02:33:19.282Z,41.42
2018-11-23T02:33:51.889Z,43.95
2018-11-23T02:34:24.507Z,41.98
2018-11-23T02:34:57.144Z,41.42
2018-11-23T02:35:29.740Z,42.38
2018-11-23T02:36:02.352Z,42.43
2018-11-23T02:36:34.954Z,40.43
2018-11-23T02:37:07.576Z,42.25
2018-11-23T02:37:40.358Z,42.60
2018-11-23T02:38:12.986Z,43.13
2018-11-23T02:38:45.577Z,44.00
2018-11-23T02:39:18.189Z,41.15
2018-11-23T02:39:50.801Z,42.65
2018-11-23T02:40:23.413Z,43.30
2018-11-23T02:40:56.036Z,43.55
2018-11-23T02:41:28.697Z,42.70
2018-11-23T02:42:01.317Z,41.35
2018-11-23T02:42:33.971Z,42.03
2018-11-23T02:43:06.588Z,43.95
2018-11-23T02:43:39.207Z,43.42
2018-11-23T02:44:11.816Z,43.98
2018-11-23T02:44:44.430Z,44.30
2018-11-23T02:45:19.323Z,40.50
2018-11-23T02:45:51.930Z,43.05
2018-11-23T02:46:24.550Z,43.75
2018-11-23T02:46:57.156Z,43.13
2018-11-23T02:47:29.780Z,43.63
2018-11-23T02:48:02.400Z,41.95
2018-11-23T02:48:35.014Z,44.10
2018-11-23T02:49:07.645Z,41.20
2018-11-23T02:49:40.261Z,44.10
2018-11-23T02:50:12.939Z,43.35
2018-11-23T02:50:45.564Z,44.00
2018-11-23T02:51:18.171Z,41.48
2018-11-23T02:51:50.785Z,41.85
2018-11-23T02:52:23.376Z,42.10
2018-11-23T02:52:55.986Z,44.85
2018-11-23T02:53:28.607Z,45.52
2018-11-23T02:54:01.251Z,43.83
2018-11-23T02:54:33.902Z,42.90
2018-11-23T02:55:07.287Z,43.70
2018-11-23T02:55:39.897Z,42.85
2018-11-23T02:56:12.519Z,42.65
2018-11-23T02:56:46.233Z,46.53
2018-11-23T02:57:18.830Z,43.92
2018-11-23T02:57:51.444Z,44.27
2018-11-23T02:58:24.077Z,45.55
2018-11-23T02:58:56.667Z,43.08
2018-11-23T02:59:29.279Z,45.60
2018-11-23T03:00:01.996Z,45.90
2018-11-23T03:00:34.613Z,42.43
2018-11-23T03:01:07.242Z,43.10
2018-11-23T03:01:41.127Z,43.78
2018-11-23T03:02:13.727Z,45.67
2018-11-23T03:02:46.397Z,44.15
2018-11-23T03:03:19.014Z,47.30
2018-11-23T03:03:51.613Z,44.85
2018-11-23T03:04:24.436Z,45.40
2018-11-23T03:04:57.041Z,44.85
2018-11-23T03:05:29.643Z,44.13
2018-11-23T03:06:02.260Z,43.58
2018-11-23T03:06:35.233Z,44.45
2018-11-23T03:07:07.862Z,45.70
2018-11-23T03:07:40.823Z,42.00
2018-11-23T03:08:13.465Z,43.13
2018-11-23T03:08:46.072Z,43.45
2018-11-23T03:09:18.676Z,45.60
2018-11-23T03:09:51.314Z,42.95
2018-11-23T03:10:23.933Z,43.98
2018-11-23T03:10:56.563Z,45.85
2018-11-23T03:11:29.147Z,45.88
2018-11-23T03:12:01.774Z,43.40
2018-11-23T03:12:34.384Z,43.78
2018-11-23T03:13:07.005Z,44.60
2018-11-23T03:13:39.603Z,44.85
2018-11-23T03:14:12.207Z,43.35
2018-11-23T03:14:44.820Z,44.70
2018-11-23T03:15:18.584Z,45.67
2018-11-23T03:15:51.179Z,45.12
2018-11-23T03:16:23.861Z,46.95
2018-11-23T03:16:56.464Z,44.90
2018-11-23T03:17:29.061Z,45.40
2018-11-23T03:18:01.656Z,46.13
2018-11-23T03:18:34.276Z,44.85
2018-11-23T03:19:07.452Z,44.83
2018-11-23T03:19:40.039Z,45.85
2018-11-23T03:20:14.432Z,46.48
2018-11-23T03:20:47.044Z,43.85
2018-11-23T03:21:19.664Z,45.30
2018-11-23T03:21:52.364Z,45.67
2018-11-23T03:22:24.972Z,44.63
2018-11-23T03:22:58.093Z,47.05
2018-11-23T03:23:30.692Z,44.63
2018-11-23T03:24:03.365Z,47.17
2018-11-23T03:24:35.988Z,46.70
2018-11-23T03:25:09.639Z,45.38
2018-11-23T03:25:42.235Z,43.35
2018-11-23T03:26:14.861Z,45.88
2018-11-23T03:26:47.481Z,44.88
2018-11-23T03:27:20.094Z,45.48
2018-11-23T03:27:53.044Z,47.25
2018-11-23T03:28:25.655Z,44.95
2018-11-23T03:28:58.264Z,46.05
2018-11-23T03:29:30.875Z,44.60
2018-11-23T03:30:04.917Z,45.40
2018-11-23T03:30:37.523Z,46.90
2018-11-23T03:31:12.549Z,44.00
2018-11-23T03:31:42.787Z,47.67
2018-11-23T03:32:15.383Z,46.58
2018-11-23T03:32:48.831Z,48.08
2018-11-23T03:33:21.442Z,45.58
2018-11-23T03:33:54.540Z,44.85
2018-11-23T03:34:27.164Z,45.25
2018-11-23T03:34:59.760Z,47.35
2018-11-23T03:35:32.352Z,43.28
2018-11-23T03:36:05.000Z,47.53
2018-11-23T03:36:37.609Z,47.30
2018-11-23T03:37:10.192Z,45.60
2018-11-23T03:37:43.108Z,47.03
2018-11-23T03:38:15.741Z,45.98
2018-11-23T03:38:48.374Z,46.35
2018-11-23T03:39:20.975Z,45.30
2018-11-23T03:39:53.589Z,46.15
2018-11-23T03:40:26.204Z,46.20
2018-11-23T03:40:58.859Z,43.58
2018-11-23T03:41:31.458Z,48.90
2018-11-23T03:42:04.192Z,45.03
2018-11-23T03:42:36.797Z,49.23
2018-11-23T03:43:09.394Z,46.68
2018-11-23T03:43:42.278Z,46.70
2018-11-23T03:44:14.911Z,46.13
2018-11-23T03:44:47.512Z,47.25
2018-11-23T03:45:20.107Z,48.60
2018-11-23T03:45:52.716Z,44.50
2018-11-23T03:46:25.333Z,46.05
2018-11-23T03:46:57.944Z,46.92
2018-11-23T03:47:30.567Z,45.25
2018-11-23T03:48:03.187Z,48.60
2018-11-23T03:48:35.799Z,47.13
2018-11-23T03:49:08.440Z,45.88
2018-11-23T03:49:41.045Z,46.45
2018-11-23T03:50:14.508Z,45.98
2018-11-23T03:50:47.103Z,45.33
2018-11-23T03:51:19.723Z,46.45
2018-11-23T03:51:52.333Z,46.13
2018-11-23T03:52:24.945Z,47.50
2018-11-23T03:52:57.593Z,45.90
2018-11-23T03:53:30.180Z,46.80
2018-11-23T03:54:03.096Z,46.55
2018-11-23T03:54:35.724Z,47.78
2018-11-23T03:55:08.430Z,46.75
2018-11-23T03:55:41.046Z,48.98
2018-11-23T03:56:13.662Z,47.70
2018-11-23T03:56:46.273Z,48.60
2018-11-23T03:57:18.896Z,45.73
2018-11-23T03:57:51.487Z,47.40
2018-11-23T03:58:24.121Z,46.15
2018-11-23T03:58:56.729Z,48.45
2018-11-23T03:59:29.329Z,48.63
2018-11-23T04:00:01.987Z,47.17
2018-11-23T04:00:34.630Z,45.58
2018-11-23T04:01:07.235Z,49.50
2018-11-23T04:01:39.839Z,45.92
2018-11-23T04:02:12.436Z,45.92
2018-11-23T04:02:45.112Z,46.73
2018-11-23T04:03:17.721Z,45.85
2018-11-23T04:03:50.376Z,46.40
2018-11-23T04:04:23.006Z,44.93
2018-11-23T04:04:56.186Z,46.75
2018-11-23T04:05:28.817Z,46.58
2018-11-23T04:06:01.426Z,49.35
2018-11-23T04:06:34.114Z,45.52
2018-11-23T04:07:06.753Z,47.05
2018-11-23T04:07:39.350Z,48.78
2018-11-23T04:08:11.977Z,47.58
2018-11-23T04:08:44.612Z,48.08
2018-11-23T04:09:17.237Z,47.45
2018-11-23T04:09:49.942Z,47.60
2018-11-23T04:10:22.540Z,50.15
2018-11-23T04:10:55.159Z,48.50
2018-11-23T04:11:27.778Z,49.05
2018-11-23T04:12:00.381Z,47.98
2018-11-23T04:12:32.991Z,49.73
2018-11-23T04:13:05.639Z,48.63
2018-11-23T04:13:38.248Z,46.68
2018-11-23T04:14:10.847Z,45.90
2018-11-23T04:14:43.532Z,48.05
2018-11-23T04:15:16.189Z,47.08
2018-11-23T04:15:48.802Z,48.15
2018-11-23T04:16:21.439Z,48.95
2018-11-23T04:16:54.131Z,47.03
2018-11-23T04:17:26.752Z,46.45
2018-11-23T04:17:59.365Z,48.55
2018-11-23T04:18:31.993Z,49.35
2018-11-23T04:19:04.872Z,49.00
2018-11-23T04:19:37.537Z,48.08
2018-11-23T04:20:11.835Z,50.45
2018-11-23T04:20:51.931Z,49.80
2018-11-23T04:21:24.570Z,48.92
2018-11-23T04:21:57.198Z,46.83
2018-11-23T04:22:29.806Z,48.92
2018-11-23T04:23:02.413Z,49.08
2018-11-23T04:23:35.039Z,48.13
2018-11-23T04:24:07.662Z,48.23
2018-11-23T04:24:40.258Z,51.08
2018-11-23T04:25:13.440Z,50.48
2018-11-23T04:25:46.043Z,48.73
2018-11-23T04:26:24.580Z,49.95
2018-11-23T04:26:51.330Z,50.55
2018-11-23T04:27:23.959Z,49.77
2018-11-23T04:27:56.568Z,48.87
2018-11-23T04:28:29.273Z,48.45
2018-11-23T04:29:01.888Z,48.50
2018-11-23T04:29:34.520Z,47.45
2018-11-23T04:30:09.303Z,48.92
2018-11-23T04:30:41.929Z,49.98
2018-11-23T04:31:14.527Z,51.20
2018-11-23T04:31:47.136Z,46.85
2018-11-23T04:32:20.145Z,49.18
2018-11-23T04:32:52.766Z,47.93
2018-11-23T04:33:25.940Z,49.00
2018-11-23T04:33:58.531Z,47.58
2018-11-23T04:34:31.129Z,49.55
2018-11-23T04:35:04.581Z,48.75
2018-11-23T04:35:37.195Z,49.35
2018-11-23T04:36:09.879Z,47.62
2018-11-23T04:36:42.489Z,52.50
2018-11-23T04:37:15.100Z,48.33
2018-11-23T04:37:48.212Z,48.05
2018-11-23T04:38:20.837Z,49.75
2018-11-23T04:38:53.502Z,51.10
2018-11-23T04:39:26.097Z,46.42
2018-11-23T04:39:58.719Z,50.33
2018-11-23T04:40:31.332Z,48.38
2018-11-23T04:41:04.093Z,50.03
2018-11-23T04:41:36.727Z,49.80
2018-11-23T04:42:09.349Z,49.53
2018-11-23T04:42:42.385Z,47.70
2018-11-23T04:43:15.020Z,49.13
2018-11-23T04:43:47.936Z,48.10
2018-11-23T04:44:20.580Z,46.83
2018-11-23T04:44:53.189Z,49.05
2018-11-23T04:45:25.847Z,48.95
2018-11-23T04:45:58.460Z,48.40
2018-11-23T04:46:31.081Z,48.98
2018-11-23T04:47:03.717Z,50.08
2018-11-23T04:47:36.798Z,48.08
2018-11-23T04:48:09.397Z,48.85
2018-11-23T04:48:42.023Z,51.23
2018-11-23T04:49:14.648Z,52.50
2018-11-23T04:49:47.253Z,48.65
2018-11-23T04:50:19.877Z,46.88
2018-11-23T04:50:52.487Z,48.58
2018-11-23T04:51:25.098Z,48.00
2018-11-23T04:51:57.721Z,49.15
2018-11-23T04:52:30.348Z,49.98
2018-11-23T04:53:02.970Z,48.70
2018-11-23T04:53:35.551Z,48.05
2018-11-23T04:54:08.166Z,48.58
2018-11-23T04:54:40.788Z,48.13
2018-11-23T04:55:13.391Z,49.15
2018-11-23T04:55:45.985Z,47.05
2018-11-23T04:56:18.583Z,46.58
2018-11-23T04:56:51.189Z,49.75
2018-11-23T04:57:23.796Z,45.33
2018-11-23T04:57:56.421Z,48.55
2018-11-23T04:58:29.062Z,47.27
2018-11-23T04:59:01.662Z,47.98
2018-11-23T04:59:34.305Z,49.85
2018-11-23T05:00:10.868Z,49.75
2018-11-23T05:00:43.481Z,46.60
2018-11-23T05:01:16.084Z,51.53
2018-11-23T05:01:48.701Z,51.18
2018-11-23T05:02:21.312Z,48.10
2018-11-23T05:02:53.933Z,52.43
2018-11-23T05:03:26.530Z,46.35
2018-11-23T05:03:59.114Z,51.85
2018-11-23T05:04:31.716Z,47.67
2018-11-23T05:05:05.896Z,48.83
2018-11-23T05:05:38.515Z,47.27
2018-11-23T05:06:11.148Z,48.30
2018-11-23T05:06:43.838Z,47.13
2018-11-23T05:07:16.420Z,47.35
2018-11-23T05:07:49.054Z,48.20
2018-11-23T05:08:21.651Z,47.33
2018-11-23T05:08:54.285Z,48.95
2018-11-23T05:09:26.888Z,49.75
2018-11-23T05:09:59.493Z,46.83
2018-11-23T05:10:32.133Z,49.55
2018-11-23T05:11:04.752Z,48.28
2018-11-23T05:11:37.974Z,49.88
2018-11-23T05:12:10.580Z,47.73
2018-11-23T05:12:43.244Z,48.60
2018-11-23T05:13:15.840Z,46.33
2018-11-23T05:13:48.470Z,47.90
2018-11-23T05:14:21.116Z,50.65
2018-11-23T05:14:53.723Z,48.33
2018-11-23T05:15:26.327Z,47.03
2018-11-23T05:15:58.965Z,47.85
2018-11-23T05:16:31.579Z,46.75
2018-11-23T05:17:04.224Z,47.93
2018-11-23T05:17:36.952Z,47.88
2018-11-23T05:18:09.559Z,46.25
2018-11-23T05:18:42.170Z,45.52
2018-11-23T05:19:14.788Z,47.93
2018-11-23T05:19:47.390Z,48.95
2018-11-23T05:20:19.983Z,48.05
2018-11-23T05:20:52.594Z,49.75
2018-11-23T05:21:25.218Z,48.30
2018-11-23T05:21:57.819Z,49.70
2018-11-23T05:22:30.435Z,50.30
2018-11-23T05:23:03.031Z,48.63
2018-11-23T05:23:35.615Z,47.45
2018-11-23T05:24:08.207Z,46.85
2018-11-23T05:24:40.827Z,47.48
2018-11-23T05:25:14.724Z,47.10
2018-11-23T05:25:47.326Z,50.20
2018-11-23T05:26:19.935Z,48.38
2018-11-23T05:26:52.551Z,47.45
2018-11-23T05:27:25.157Z,48.10
2018-11-23T05:27:57.755Z,49.42
2018-11-23T05:28:30.363Z,49.23
2018-11-23T05:29:02.987Z,47.05
2018-11-23T05:29:35.585Z,48.13
2018-11-23T05:30:13.797Z,47.25
2018-11-23T05:30:46.409Z,46.35
2018-11-23T05:31:19.013Z,46.08
2018-11-23T05:31:51.625Z,46.15
2018-11-23T05:32:24.261Z,46.95
2018-11-23T05:32:56.901Z,49.63
2018-11-23T05:33:29.514Z,48.65
2018-11-23T05:34:02.125Z,47.53
2018-11-23T05:34:34.730Z,47.38
2018-11-23T05:35:08.089Z,48.00
2018-11-23T05:35:40.688Z,48.17
2018-11-23T05:36:13.296Z,47.38
2018-11-23T05:36:45.904Z,48.70
2018-11-23T05:37:18.512Z,49.25
2018-11-23T05:37:51.151Z,47.03
2018-11-23T05:38:23.802Z,48.55
2018-11-23T05:38:56.404Z,48.10
2018-11-23T05:39:29.040Z,47.95
2018-11-23T05:40:01.659Z,48.10
2018-11-23T05:40:34.256Z,48.55
2018-11-23T05:41:06.874Z,48.45
2018-11-23T05:41:39.499Z,47.95
2018-11-23T05:42:12.094Z,47.17
2018-11-23T05:42:44.703Z,48.58
2018-11-23T05:43:17.348Z,46.98
2018-11-23T05:43:50.004Z,51.60
2018-11-23T05:44:22.614Z,49.13
2018-11-23T05:44:55.233Z,48.60
2018-11-23T05:45:27.829Z,46.83
2018-11-23T05:46:00.451Z,48.33
2018-11-23T05:46:33.221Z,47.17
2018-11-23T05:47:06.177Z,48.92
2018-11-23T05:47:38.804Z,47.17
2018-11-23T05:48:11.412Z,49.83
2018-11-23T05:48:44.050Z,49.50
2018-11-23T05:49:16.680Z,48.65
2018-11-23T05:49:49.291Z,48.10
2018-11-23T05:50:24.012Z,48.05
2018-11-23T05:50:56.612Z,47.30
2018-11-23T05:51:29.243Z,51.18
2018-11-23T05:52:01.874Z,49.45
2018-11-23T05:52:34.500Z,47.78
2018-11-23T05:53:07.102Z,50.17
2018-11-23T05:53:39.693Z,48.65
2018-11-23T05:54:12.476Z,48.35
2018-11-23T05:54:45.075Z,48.55
2018-11-23T05:55:17.700Z,49.67
2018-11-23T05:55:50.336Z,49.95
2018-11-23T05:56:22.963Z,49.93
2018-11-23T05:56:55.588Z,48.90
2018-11-23T05:57:28.196Z,49.45
2018-11-23T05:58:00.795Z,51.42
2018-11-23T05:58:33.439Z,49.00
2018-11-23T05:59:06.146Z,47.85
2018-11-23T05:59:38.799Z,47.00
2018-11-23T06:00:14.260Z,47.33
2018-11-23T06:00:46.883Z,49.42
2018-11-23T06:01:19.476Z,50.95
2018-11-23T06:01:52.310Z,47.93
2018-11-23T06:02:24.993Z,48.23
2018-11-23T06:02:57.596Z,48.60
2018-11-23T06:03:30.227Z,49.27
2018-11-23T06:04:02.865Z,47.13
2018-11-23T06:04:35.491Z,48.87
2018-11-23T06:05:08.645Z,48.40
2018-11-23T06:05:41.316Z,50.92
2018-11-23T06:06:13.922Z,49.53
2018-11-23T06:06:46.511Z,50.00
2018-11-23T06:07:19.095Z,50.30
2018-11-23T06:07:51.807Z,48.58
2018-11-23T06:08:24.437Z,48.30
2018-11-23T06:08:57.053Z,47.08
2018-11-23T06:09:29.643Z,47.88
2018-11-23T06:10:02.320Z,48.58
2018-11-23T06:10:34.974Z,47.48
2018-11-23T06:11:07.592Z,50.28
2018-11-23T06:11:40.203Z,47.65
2018-11-23T06:12:12.828Z,49.15
2018-11-23T06:12:45.464Z,47.38
2018-11-23T06:13:18.080Z,49.42
2018-11-23T06:13:50.701Z,49.30
2018-11-23T06:14:23.307Z,47.95
2018-11-23T06:14:55.924Z,48.52
2018-11-23T06:15:28.549Z,49.88
2018-11-23T06:16:01.180Z,49.98
2018-11-23T06:16:33.787Z,50.80
2018-11-23T06:17:06.411Z,48.20
2018-11-23T06:17:39.112Z,50.03
2018-11-23T06:18:11.709Z,49.27
2018-11-23T06:18:44.334Z,49.30
2018-11-23T06:19:16.949Z,50.58
2018-11-23T06:19:49.546Z,50.75
2018-11-23T06:20:23.665Z,49.38
2018-11-23T06:20:56.279Z,48.35
2018-11-23T06:21:28.985Z,48.60
2018-11-23T06:22:01.598Z,50.30
2018-11-23T06:22:34.209Z,51.18
2018-11-23T06:23:06.841Z,49.27
2018-11-23T06:23:39.460Z,51.48
2018-11-23T06:24:12.059Z,51.13
2018-11-23T06:24:44.673Z,51.73
2018-11-23T06:25:37.159Z,49.23
2018-11-23T06:26:16.453Z,48.83
2018-11-23T06:26:49.103Z,49.05
2018-11-23T06:27:21.708Z,48.73
2018-11-23T06:27:54.340Z,48.90
2018-11-23T06:28:26.947Z,46.92
2018-11-23T06:28:59.527Z,49.73
2018-11-23T06:29:32.141Z,47.75
2018-11-23T06:30:05.927Z,48.90
2018-11-23T06:30:38.541Z,50.23
2018-11-23T06:31:11.581Z,49.50
2018-11-23T06:31:44.187Z,47.98
2018-11-23T06:32:28.318Z,49.77
2018-11-23T06:33:12.700Z,49.63
2018-11-23T06:33:46.360Z,48.38
2018-11-23T06:34:18.955Z,47.67
2018-11-23T06:34:51.573Z,49.55
2018-11-23T06:35:24.197Z,48.38
2018-11-23T06:35:56.788Z,50.00
2018-11-23T06:36:29.379Z,48.87
2018-11-23T06:37:01.984Z,49.40
2018-11-23T06:37:34.616Z,50.95
2018-11-23T06:38:07.282Z,49.55
2018-11-23T06:38:39.884Z,49.10
2018-11-23T06:39:12.484Z,48.38
2018-11-23T06:39:45.107Z,50.30
2018-11-23T06:40:18.258Z,52.05
2018-11-23T06:40:50.967Z,45.55
2018-11-23T06:41:23.572Z,48.28
2018-11-23T06:41:56.172Z,52.33
2018-11-23T06:42:28.801Z,52.73
2018-11-23T06:43:01.508Z,49.75
2018-11-23T06:43:34.145Z,51.95
2018-11-23T06:44:06.787Z,48.52
2018-11-23T06:44:39.413Z,49.35
2018-11-23T06:45:12.129Z,51.58
2018-11-23T06:46:47.953Z,48.45
2018-11-23T06:47:20.573Z,46.30
2018-11-23T06:47:53.184Z,47.90
2018-11-23T06:48:25.846Z,47.65
2018-11-23T06:48:58.454Z,49.75
2018-11-23T06:49:31.030Z,48.60
2018-11-23T06:50:04.088Z,49.65
2018-11-23T06:50:36.688Z,50.30
2018-11-23T06:51:09.312Z,47.40
2018-11-23T06:51:41.913Z,49.40
2018-11-23T06:52:14.515Z,48.92
2018-11-23T06:52:47.136Z,49.42
2018-11-23T06:53:19.743Z,50.10
2018-11-23T06:53:52.377Z,49.18
2018-11-23T06:54:24.958Z,49.60
2018-11-23T06:54:57.567Z,51.20
2018-11-23T06:55:30.180Z,51.05
2018-11-23T06:56:03.480Z,49.27
2018-11-23T06:56:36.076Z,50.25
2018-11-23T06:57:08.690Z,47.00
2018-11-23T06:57:41.615Z,49.98
2018-11-23T06:58:14.228Z,49.55
2018-11-23T06:58:46.886Z,49.40
2018-11-23T06:59:19.506Z,48.98
2018-11-23T06:59:52.158Z,50.08
2018-11-23T07:00:24.795Z,48.85
2018-11-23T07:00:57.602Z,52.50
2018-11-23T07:01:30.206Z,51.15
2018-11-23T07:02:02.842Z,50.12
2018-11-23T07:02:35.447Z,49.18
2018-11-23T07:03:08.084Z,49.67
2018-11-23T07:03:40.704Z,51.40
2018-11-23T07:04:13.310Z,53.02
2018-11-23T07:04:45.942Z,48.63
2018-11-23T07:05:18.553Z,48.48